Time;durP1;ratioP1;P1;durP2;ratioP2;P2;SDS_P1;SDS_P2;PMS_P1;PMS_P2;Temp;Humidity;BMP_temperature;BMP_pressure;BME280_temperature;BME280_humidity;BME280_pressure;Samples;Min_cycle;Max_cycle;Signal;HPM_P1;HPM_P2
2022/12/18 00:02:01;;;;;;;1.35;1.35;;;;;;;0.66;62.02;101900.12;18561479;32;20092;-57
2022/12/18 00:12:05;;;;;;;2.10;2.00;;;;;;;0.86;61.14;101910.75;18558132;32;20092;-57
2022/12/18 00:22:19;;;;;;;0.80;0.80;;;;;;;0.66;61.62;101930.06;18559039;32;20098;-57
2022/12/18 00:32:22;;;;;;;0.70;0.70;;;;;;;0.73;61.22;101954.47;18561864;32;20104;-56
2022/12/18 00:52:47;;;;;;;1.00;1.00;;;;;;;0.26;61.97;101979.78;18567179;32;20132;-57
2022/12/18 01:02:52;;;;;;;0.80;0.80;;;;;;;0.36;62.15;101986.41;18565757;32;20140;-56
2022/12/18 01:12:56;;;;;;;5.47;4.72;;;;;;;0.18;62.51;102004.97;18565315;32;20115;-56
2022/12/18 01:23:01;;;;;;;0.70;0.70;;;;;;;0.20;62.26;102017.91;18566247;32;20693;-56
2022/12/18 01:33:05;;;;;;;0.70;0.70;;;;;;;0.22;62.79;102029.19;18564916;32;20088;-57
2022/12/18 01:43:10;;;;;;;0.70;0.70;;;;;;;0.14;62.06;102033.78;18564409;32;20124;-57
2022/12/18 01:53:16;;;;;;;0.90;0.90;;;;;;;-0.61;63.89;102041.62;18565317;31;20115;-57
2022/12/18 02:03:21;;;;;;;0.80;0.80;;;;;;;0.02;61.74;102045.81;18564989;32;20390;-56
2022/12/18 02:13:31;;;;;;;1.10;1.10;;;;;;;-0.24;61.99;102063.78;18563890;32;20106;-57
2022/12/18 02:23:46;;;;;;;1.00;1.00;;;;;;;-0.21;62.32;102079.41;18563508;32;20093;-57
2022/12/18 02:33:52;;;;;;;0.77;0.77;;;;;;;-0.13;62.34;102090.22;18424005;32;20135;-56
2022/12/18 02:43:58;;;;;;;0.70;0.70;;;;;;;-0.47;61.54;102100.69;18433827;32;20731;-56
2022/12/18 02:54:07;;;;;;;0.80;0.80;;;;;;;-0.54;62.27;102124.13;18561682;32;20131;-56
2022/12/18 03:04:13;;;;;;;0.87;0.87;;;;;;;-0.64;61.85;102127.72;18562456;32;20080;-56
2022/12/18 03:14:18;;;;;;;0.80;0.80;;;;;;;-0.73;61.97;102126.28;18562003;32;20099;-56
2022/12/18 03:24:22;;;;;;;0.70;0.70;;;;;;;-0.76;61.77;102146.59;18561969;32;20100;-56
2022/12/18 03:34:30;;;;;;;0.90;0.90;;;;;;;-0.94;62.57;102163.19;18561565;32;20096;-56
2022/12/18 03:44:37;;;;;;;0.70;0.70;;;;;;;-0.70;61.81;102175.22;18561183;32;20092;-56
2022/12/18 03:54:42;;;;;;;0.90;0.90;;;;;;;-0.87;62.30;102174.00;18560692;32;20103;-56
2022/12/18 04:04:46;;;;;;;0.93;0.93;;;;;;;-0.99;61.48;102185.94;18596271;31;20510;-57
2022/12/18 04:14:50;;;;;;;3.70;3.37;;;;;;;-0.98;61.55;102198.84;18624692;31;20160;-57
2022/12/18 04:24:54;;;;;;;0.70;0.70;;;;;;;-1.15;61.50;102200.16;18625149;31;20108;-57
2022/12/18 04:34:58;;;;;;;0.90;0.90;;;;;;;-1.81;63.25;102214.84;18623635;31;20136;-56
2022/12/18 04:45:01;;;;;;;0.80;0.80;;;;;;;-1.50;61.55;102220.56;18623140;31;20172;-56
2022/12/18 04:55:06;;;;;;;0.80;0.80;;;;;;;-1.45;61.38;102244.84;18622323;31;20119;-57
2022/12/18 05:05:10;;;;;;;0.80;0.80;;;;;;;-1.66;62.31;102245.00;18621510;31;20179;-56
2022/12/18 05:15:14;;;;;;;0.80;0.80;;;;;;;-1.70;62.51;102263.47;18621169;31;20456;-57
2022/12/18 05:25:18;;;;;;;0.90;0.90;;;;;;;-1.58;61.81;102263.50;18581231;31;20215;-57
2022/12/18 05:35:22;;;;;;;5.83;5.60;;;;;;;-1.60;61.32;102276.22;18602923;31;20118;-56
2022/12/18 05:45:25;;;;;;;0.90;0.90;;;;;;;-1.75;60.98;102288.72;18593885;31;20100;-56
2022/12/18 05:55:30;;;;;;;0.70;0.70;;;;;;;-1.63;60.86;102305.81;18590818;31;20089;-56
2022/12/18 06:05:36;;;;;;;0.90;0.90;;;;;;;-2.15;60.66;102323.91;18592645;31;20102;-57
2022/12/18 06:15:40;;;;;;;0.60;0.60;;;;;;;-2.01;61.40;102332.69;18585992;31;20103;-57
2022/12/18 06:25:43;;;;;;;0.83;0.83;;;;;;;-1.88;61.24;102345.72;18589714;31;20383;-60
2022/12/18 06:35:48;;;;;;;0.80;0.80;;;;;;;-2.17;60.80;102351.97;18605852;31;20092;-57
2022/12/18 06:45:52;;;;;;;0.83;0.83;;;;;;;-2.30;62.12;102374.75;18624970;31;20152;-57
2022/12/18 06:56:02;;;;;;;0.63;0.63;;;;;;;-2.06;61.04;102380.09;18623240;31;20215;-57
2022/12/18 07:06:15;;;;;;;0.90;0.90;;;;;;;-2.20;61.41;102402.87;18619696;31;20157;-57
2022/12/18 07:16:21;;;;;;;0.90;0.90;;;;;;;-1.97;61.44;102409.00;18584264;31;20084;-57
2022/12/18 07:26:28;;;;;;;0.80;0.80;;;;;;;-1.27;60.56;102414.50;18558422;32;20112;-57
2022/12/18 07:36:32;;;;;;;0.73;0.73;;;;;;;-0.69;58.53;102427.50;18558299;32;20116;-57
2022/12/18 07:46:36;;;;;;;0.90;0.90;;;;;;;-0.46;59.57;102447.22;18557436;32;20096;-57
2022/12/18 07:56:40;;;;;;;1.00;1.00;;;;;;;0.14;58.96;102467.84;18557364;32;20141;-57
2022/12/18 08:06:43;;;;;;;0.80;0.80;;;;;;;0.22;59.17;102486.41;18554426;32;20101;-57
2022/12/18 08:16:51;;;;;;;0.70;0.70;;;;;;;0.50;60.06;102491.00;18557539;32;20103;-57
2022/12/18 08:26:56;;;;;;;2.75;2.62;;;;;;;0.76;61.06;102498.03;18558716;31;20144;-57
2022/12/18 08:37:21;;;;;;;2.53;2.40;;;;;;;0.89;61.90;102497.22;18558466;32;20089;-57
2022/12/18 08:47:25;;;;;;;12.45;11.27;;;;;;;1.14;61.06;102514.41;18557671;32;20186;-57
2022/12/18 08:57:30;;;;;;;1.40;1.35;;;;;;;1.17;60.96;102516.28;18564492;31;20132;-57
2022/12/18 09:07:33;;;;;;;0.70;0.70;;;;;;;1.28;60.89;102527.34;18606422;31;20104;-57
2022/12/18 09:17:38;;;;;;;0.88;0.85;;;;;;;1.96;59.86;102539.72;18607578;31;20139;-57
2022/12/18 09:27:41;;;;;;;0.70;0.70;;;;;;;1.50;60.26;102546.06;18603680;31;20472;-57
2022/12/18 09:37:45;;;;;;;0.80;0.80;;;;;;;1.61;59.83;102554.53;18584331;31;20110;-57
2022/12/18 10:00:55;;;;;;;2.97;1.63;;;;;;;2.98;55.42;102534.25;18727978;31;157698;-59
2022/12/18 10:11:00;;;;;;;0.73;0.73;;;;;;;2.98;55.42;102534.25;18680017;31;20439;-58
2022/12/18 10:21:10;;;;;;;2.50;2.20;;;;;;;3.02;55.85;102536.22;18675603;31;20135;-58
2022/12/18 10:31:16;;;;;;;0.80;0.80;;;;;;;1.51;59.84;102537.53;18672540;31;20092;-58
2022/12/18 10:54:17;;;;;;;1.70;1.60;;;;;;;4.77;50.87;102512.06;18699280;31;159813;-57
2022/12/18 11:20:34;;;;;;;1.75;1.65;;;;;;;4.51;50.66;102493.38;18669067;31;160119;-59
2022/12/18 11:43:26;;;;;;;0.90;0.90;;;;;;;4.19;49.80;102492.44;18729977;31;161368;-59
2022/12/18 11:53:31;;;;;;;1.00;1.00;;;;;;;4.19;49.80;102492.44;18686733;31;20188;-58
2022/12/18 12:04:02;;;;;;;0.70;0.70;;;;;;;3.79;51.12;102482.31;18727246;31;20095;-59
2022/12/18 12:14:16;;;;;;;2.30;1.73;;;;;;;2.99;53.07;102487.00;18738229;31;20111;-59
2022/12/18 12:24:30;;;;;;;1.15;1.15;;;;;;;4.27;51.66;102479.94;18737949;31;20559;-58
2022/12/18 12:34:38;;;;;;;1.20;1.20;;;;;;;2.85;52.34;102476.72;18709748;31;20161;-58
2022/12/18 12:44:46;;;;;;;1.05;1.05;;;;;;;4.35;50.28;102476.09;18475833;31;20111;-58
2022/12/18 12:54:57;;;;;;;0.90;0.90;;;;;;;4.66;49.33;102476.94;18371696;32;20093;-58
2022/12/18 13:05:10;;;;;;;0.75;0.75;;;;;;;4.08;49.47;102503.81;18362311;32;20112;-58
2022/12/18 13:15:20;;;;;;;4.80;4.50;;;;;;;4.83;47.80;102519.28;18387239;32;20096;-59
2022/12/18 13:25:36;;;;;;;0.80;0.80;;;;;;;4.49;48.60;102522.53;18386650;32;20114;-59
2022/12/18 13:35:40;;;;;;;0.70;0.70;;;;;;;4.96;49.19;102526.03;18378749;32;20096;-59
2022/12/18 13:45:47;;;;;;;1.45;1.37;;;;;;;5.11;49.30;102534.63;18385051;32;20360;-59
2022/12/18 13:55:50;;;;;;;0.90;0.90;;;;;;;5.05;50.76;102539.47;18374625;32;20158;-59
2022/12/18 14:06:01;;;;;;;5.15;2.17;;;;;;;5.00;51.25;102546.09;18387904;32;20121;-59
2022/12/18 14:16:07;;;;;;;0.73;0.73;;;;;;;4.92;51.48;102549.94;18389827;32;20101;-59
2022/12/18 14:26:24;;;;;;;5.18;3.55;;;;;;;4.81;51.64;102563.16;18395372;32;20093;-59
2022/12/18 14:36:29;;;;;;;0.90;0.90;;;;;;;4.61;52.17;102556.88;18392673;31;20107;-59
2022/12/18 14:46:36;;;;;;;1.73;1.62;;;;;;;4.37;52.58;102566.72;18399637;32;20100;-59
2022/12/18 14:56:45;;;;;;;0.80;0.80;;;;;;;4.08;54.03;102583.94;18393580;32;20097;-59
2022/12/18 15:06:49;;;;;;;0.70;0.70;;;;;;;3.78;54.79;102595.13;18388489;32;20112;-59
2022/12/18 15:16:54;;;;;;;0.80;0.80;;;;;;;3.38;55.91;102614.19;18386494;32;20111;-59
2022/12/18 15:26:59;;;;;;;2.12;2.03;;;;;;;3.02;56.78;102614.53;18408127;32;20115;-59
2022/12/18 15:37:02;;;;;;;3.40;2.58;;;;;;;2.82;56.92;102636.44;18413024;31;20086;-59
2022/12/18 15:47:12;;;;;;;3.47;3.35;;;;;;;2.49;58.01;102643.75;18381605;32;20133;-59
2022/12/18 15:57:24;;;;;;;1.37;1.30;;;;;;;2.21;58.58;102652.19;18371754;32;20104;-59
2022/12/18 16:07:29;;;;;;;0.95;0.95;;;;;;;2.02;59.15;102674.09;18402585;31;20116;-59
2022/12/18 16:17:33;;;;;;;4.97;3.45;;;;;;;1.86;59.79;102686.69;18357077;32;20101;-59
2022/12/18 16:27:38;;;;;;;2.42;2.28;;;;;;;1.79;59.72;102695.69;18359055;32;20373;-59
2022/12/18 16:37:42;;;;;;;1.20;1.20;;;;;;;1.50;60.20;102697.94;18373401;32;20432;-59
2022/12/18 16:47:47;;;;;;;0.70;0.70;;;;;;;1.31;59.87;102720.56;18422333;32;20434;-59
2022/12/18 16:57:50;;;;;;;2.00;1.90;;;;;;;1.24;60.36;102734.66;18418219;32;20133;-59
2022/12/18 17:07:55;;;;;;;2.37;2.28;;;;;;;1.09;60.01;102725.03;18421785;32;20089;-59
2022/12/18 17:17:59;;;;;;;1.20;1.20;;;;;;;0.98;60.67;102714.72;18381364;32;20113;-59
2022/12/18 17:28:04;;;;;;;1.25;1.25;;;;;;;0.87;60.73;102717.41;18467428;31;20103;-59
2022/12/18 17:38:09;;;;;;;3.10;3.00;;;;;;;0.71;60.43;102727.31;18420152;32;20107;-58
2022/12/18 17:48:14;;;;;;;1.00;1.00;;;;;;;0.69;60.27;102725.50;18473644;31;20410;-59
2022/12/18 17:58:17;;;;;;;2.22;2.12;;;;;;;0.54;60.52;102732.97;18419712;32;20442;-59
2022/12/18 18:08:23;;;;;;;1.12;1.08;;;;;;;0.29;60.85;102729.25;18418793;31;20089;-59
2022/12/18 18:18:26;;;;;;;1.13;1.10;;;;;;;0.06;61.29;102734.41;18419010;32;20101;-59
2022/12/18 18:28:31;;;;;;;9.30;8.73;;;;;;;-0.02;61.35;102748.31;18418509;32;20096;-59
2022/12/18 18:38:34;;;;;;;3.63;3.43;;;;;;;-0.04;61.56;102743.06;18376593;31;20100;-58
2022/12/18 18:48:39;;;;;;;1.33;1.33;;;;;;;-0.27;62.32;102751.50;18439038;31;20135;-57
2022/12/18 18:58:45;;;;;;;3.53;3.33;;;;;;;-0.35;61.44;102760.25;18417482;32;20101;-57
2022/12/18 19:08:51;;;;;;;2.30;2.20;;;;;;;-0.39;61.10;102782.22;18417042;32;20189;-56
2022/12/18 19:18:56;;;;;;;5.07;4.60;;;;;;;-0.70;61.89;102785.72;18416638;32;20144;-57
2022/12/18 19:29:08;;;;;;;0.80;0.80;;;;;;;-0.77;61.00;102796.25;18416833;32;20350;-57
2022/12/18 19:39:13;;;;;;;4.23;4.03;;;;;;;-0.75;61.10;102812.69;18415473;32;20464;-57
2022/12/18 19:49:26;;;;;;;2.07;1.97;;;;;;;-0.81;61.13;102824.97;18472581;31;20119;-57
2022/12/18 19:59:29;;;;;;;4.23;4.03;;;;;;;-1.08;60.84;102824.44;18461950;31;20097;-57
2022/12/18 20:09:35;;;;;;;0.90;0.90;;;;;;;-1.10;60.75;102833.69;18469201;31;20107;-57
2022/12/18 20:19:39;;;;;;;0.80;0.80;;;;;;;-1.16;61.03;102840.84;18386401;32;20097;-58
2022/12/18 20:29:44;;;;;;;0.80;0.80;;;;;;;-1.13;61.01;102856.50;18441340;31;20386;-57
2022/12/18 20:39:47;;;;;;;2.67;1.57;;;;;;;-1.06;62.05;102866.50;18424344;31;20101;-56
2022/12/18 20:49:53;;;;;;;1.13;1.13;;;;;;;-0.82;62.32;102865.88;18397529;31;20093;-57
2022/12/18 20:59:56;;;;;;;0.90;0.90;;;;;;;-0.81;63.81;102883.06;18357671;32;20093;-61
2022/12/18 21:10:06;;;;;;;5.60;5.40;;;;;;;-0.61;64.28;102888.22;18359375;32;20106;-57
2022/12/18 21:20:10;;;;;;;1.65;1.58;;;;;;;-0.33;63.82;102902.44;18412024;31;20113;-57
2022/12/18 21:30:21;;;;;;;0.90;0.90;;;;;;;-0.10;65.35;102900.87;18406181;32;20097;-57
2022/12/18 21:40:25;;;;;;;6.55;4.97;;;;;;;0.18;65.59;102891.19;18417406;32;20353;-57
2022/12/18 21:50:30;;;;;;;3.72;1.95;;;;;;;0.31;66.73;102882.78;18394099;32;20097;-57
2022/12/18 22:00:33;;;;;;;1.83;1.73;;;;;;;0.44;67.90;102876.03;18412096;32;20097;-57
2022/12/18 22:10:37;;;;;;;1.00;1.00;;;;;;;0.90;66.98;102871.03;18380821;32;20190;-58
2022/12/18 22:20:41;;;;;;;1.37;1.37;;;;;;;0.91;67.26;102872.84;18395061;32;20089;-59
2022/12/18 22:30:45;;;;;;;0.73;0.73;;;;;;;1.17;66.69;102874.84;18356047;32;20154;-58
2022/12/18 22:40:49;;;;;;;2.70;2.50;;;;;;;1.23;66.46;102874.41;18374958;32;20172;-57
2022/12/18 22:50:54;;;;;;;5.07;3.33;;;;;;;1.36;66.12;102894.25;18405952;32;20093;-59
2022/12/18 23:01:02;;;;;;;0.90;0.90;;;;;;;1.39;65.69;102886.75;18378062;32;20178;-57
2022/12/18 23:11:06;;;;;;;1.35;1.35;;;;;;;1.48;65.39;102891.72;18353529;32;20383;-57
2022/12/18 23:21:12;;;;;;;1.90;1.77;;;;;;;1.62;65.24;102882.44;18351007;32;20153;-57
2022/12/18 23:31:19;;;;;;;2.50;2.40;;;;;;;1.58;65.32;102888.13;18351044;32;20186;-57
2022/12/18 23:41:25;;;;;;;2.37;2.25;;;;;;;1.52;65.64;102879.19;18352255;32;20183;-58
2022/12/18 23:51:30;;;;;;;5.82;4.97;;;;;;;1.67;65.52;102870.78;18351959;32;20652;-58
